Flight Track Log - Related Links

Times and Time Zones

All times are in EDT time to prevent confusion due to time zone crossing. See the AWI3642 flight status page for this flight to view local times or setup timezone preferences in your user account.

Time Position Orientation Groundspeed Altitude Reporting Facility
EDT Latitude Longitude Course Direction KTS MPH feet Rate Location/Type
Sat 06:24:39 PM 44.3842 -73.1633 194° South 187 215 3,800  Level Boston Center
Sat 06:25:00 PM 44.1782 -73.2554 196° South  Level FlightAware Approximate
Sat 06:25:39 PM 44.3172 -73.1917 197° South 232 267 5,800  Level Boston Center
Sat 06:26:00 PM 44.0823 -73.2938 196° South  Level FlightAware Approximate
Sat 06:26:39 PM 44.2481 -73.2314 202° Southwest 257 296 8,000  Level Boston Center
Sat 06:27:00 PM 43.9864 -73.3322 196° South  Level FlightAware Approximate
Sat 06:27:39 PM 44.1811 -73.2883 211° Southwest 279 321 9,900  Level Boston Center
Sat 06:28:00 PM 43.8905 -73.3702 195° South  Level FlightAware Approximate
Sat 06:28:39 PM 44.1119 -73.3481 212° Southwest 294 338 11,600  Level Boston Center
Sat 06:29:39 PM 44.0383 -73.4133 213° Southwest 312 359 13,300 2,000 Climbing Boston Center
Sat 06:30:39 PM 43.9522 -73.4869 212° Southwest 325 374 15,600 1,850 Climbing Boston Center
Sat 06:31:39 PM 43.8767 -73.5547 213° Southwest 325 374 17,000 1,150 Climbing Boston Center
Sat 06:32:39 PM 43.7969 -73.6194 210° Southwest 333 383 17,900 900 Climbing Boston Center
Sat 06:33:39 PM 43.7147 -73.6897 212° Southwest 346 398 18,800 550 Climbing Boston Center
Sat 06:34:39 PM 43.6264 -73.7622 211° Southwest 361 415 19,000 150 Climbing Boston Center
Sat 06:35:39 PM 43.5317 -73.8406 211° Southwest 383 441 19,100 500 Climbing Boston Center
Sat 06:36:39 PM 43.4350 -73.9239 212° Southwest 400 460 20,000 800 Climbing Boston Center
Sat 06:37:39 PM 43.3400 -74.0044 212° Southwest 406 467 20,700 650 Climbing Boston Center
Sat 06:38:39 PM 43.2431 -74.0847 211° Southwest 411 473 21,300 550 Climbing Boston Center
Sat 06:39:39 PM 43.1439 -74.1675 211° Southwest 411 473 21,800 500 Climbing Boston Center
Sat 06:40:39 PM 43.0489 -74.2500 212° Southwest 411 473 22,300 450 Climbing Boston Center
Sat 06:41:39 PM 42.9600 -74.3211 210° Southwest 411 473 22,700 450 Climbing Boston Center
Sat 06:42:39 PM 42.8586 -74.4058 211° Southwest 416 479 23,200 500 Climbing Boston Center
Sat 06:43:39 PM 42.7614 -74.4847 211° Southwest 416 479 23,700 400 Climbing Boston Center
Sat 06:44:39 PM 42.6597 -74.5689 211° Southwest 416 479 24,000 150 Climbing Boston Center
Sat 06:45:39 PM 42.5603 -74.6528 212° Southwest 421 484 24,000  Level Boston Center
Sat 06:46:39 PM 42.4586 -74.7336 210° Southwest 427 491 24,000 -150 Level Boston Center
Sat 06:47:39 PM 42.3503 -74.8225 211° Southwest 437 503 23,700 -857 Descending Boston Center
Sat 06:49:27 PM 42.1483 -74.9833 211° Southwest 443 510 21,600 -1,314 Descending New York Center
Sat 06:50:28 PM 42.0456 -75.0661 211° Southwest 443 510 20,000 -1,279 Descending New York Center
Sat 06:51:29 PM 41.9467 -75.1517 213° Southwest 433 498 19,000 -492 Descending New York Center
Sat 06:52:30 PM 41.8458 -75.2314 211° Southwest 433 498 19,000 -610 Level New York Center
Sat 06:53:27 PM 41.7578 -75.3033 211° Southwest 427 491 17,800 -1,795 Descending New York Center
Sat 06:54:27 PM 41.6503 -75.3903 211° Southwest 415 478 15,500 -2,033 Descending New York Center
Sat 06:55:28 PM 41.5581 -75.4617 210° Southwest 410 472 13,700 -1,672 Descending New York Center
Sat 06:56:29 PM 41.4697 -75.5331 211° Southwest 387 445 12,100 -857 Descending New York Center
Sat 06:57:27 PM 41.3922 -75.5967 212° Southwest 381 438 12,000 -50 Descending New York Center
Sat 06:58:30 PM 41.2933 -75.6722 210° Southwest 381 438 12,000  Level New York Center
Sat 06:59:29 PM 41.1989 -75.6875 187° South 363 418 12,000  Level New York Center
Sat 07:00:27 PM 41.0822 -75.6872 180° South 378 435 12,000  Level New York Center
Sat 07:01:27 PM 40.9822 -75.6883 180° South 383 441 12,000  Level New York Center
Sat 07:02:30 PM 40.8783 -75.6808 177° South 377 434 12,000 -198 Level New York Center
Sat 07:03:28 PM 40.7947 -75.6336 157° South 365 420 11,600 -706 Descending New York Center
Sat 07:04:29 PM 40.7114 -75.5839 156° South 351 404 10,600 -800 Descending New York Center
Sat 07:05:28 PM 40.6361 -75.5406 156° South 317 365 10,000 -300 Descending New York Center
Sat 07:06:29 PM 40.5647 -75.5000 157° South 292 336 10,000 -151 Level New York Center
Sat 07:07:27 PM 40.4889 -75.4703 163° South 281 323 9,700 -661 Descending New York Center
Sat 07:08:27 PM 40.4139 -75.4678 179° South 281 323 8,700 -1,289 Descending New York Center
Sat 07:09:28 PM 40.3347 -75.4678 180° South 272 313 7,100 -1,475 Descending New York Center
Sat 07:10:29 PM 40.2600 -75.4628 177° South 272 313 5,700 -1,462 Descending New York Center
Sat 07:11:27 PM 40.1811 -75.4519 174° South 278 320 4,200 -857 Descending New York Center
Sat 07:12:28 PM 40.1331 -75.4053 143° Southeast 254 292 4,000 -99 Descending New York Center
Sat 07:13:28 PM 40.0842 -75.3181 126° Southeast 257 296 4,000  Level New York Center
Sat 07:14:27 PM 40.0369 -75.2444 130° Southeast 268 308 4,000  Level New York Center
Sat 07:15:28 PM 39.9883 -75.2114 152° Southeast 235 270 4,000  Level New York Center
Sat 07:16:27 PM 39.9433 -75.1842 155° Southeast 203 234 4,000  Level New York Center

Login

Don't have an account? Register now (free) for customized features, flight alerts, and more!